createdAt,value
2023-04-17T00:01:16.164Z,85.10
2023-04-17T00:03:43.177Z,85.13
2023-04-17T00:06:09.967Z,85.28
2023-04-17T00:08:36.665Z,85.32
2023-04-17T00:11:07.814Z,85.24
2023-04-17T00:13:36.286Z,85.01
2023-04-17T00:16:03.353Z,85.12
2023-04-17T00:18:30.130Z,85.61
2023-04-17T00:20:57.185Z,85.47
2023-04-17T00:23:25.709Z,85.34
2023-04-17T00:25:52.343Z,85.35
2023-04-17T00:28:19.410Z,85.42
2023-04-17T00:30:46.802Z,85.44
2023-04-17T00:33:13.662Z,85.68
2023-04-17T00:35:40.330Z,85.65
2023-04-17T00:38:09.151Z,85.51
2023-04-17T00:40:36.440Z,85.62
2023-04-17T00:43:04.710Z,85.79
2023-04-17T00:45:31.569Z,86.04
2023-04-17T00:48:00.622Z,85.95
2023-04-17T00:50:31.443Z,85.77
2023-04-17T00:52:59.616Z,85.91
2023-04-17T00:55:27.621Z,85.67
2023-04-17T00:57:55.657Z,85.86
2023-04-17T01:00:22.756Z,86.00
2023-04-17T01:02:49.489Z,86.19
2023-04-17T01:05:16.218Z,86.20
2023-04-17T01:07:43.058Z,86.24
2023-04-17T01:10:10.483Z,86.17
2023-04-17T01:12:37.235Z,86.19
2023-04-17T01:15:04.828Z,86.59
2023-04-17T01:17:31.636Z,86.29
2023-04-17T01:19:58.383Z,86.49
2023-04-17T01:22:25.472Z,86.82
2023-04-17T01:24:52.160Z,86.78
2023-04-17T01:27:18.771Z,86.86
2023-04-17T01:29:45.482Z,86.97
2023-04-17T01:32:12.355Z,86.87
2023-04-17T01:34:39.030Z,86.98
2023-04-17T01:37:05.824Z,86.96
2023-04-17T01:39:32.510Z,87.15
2023-04-17T01:41:59.228Z,87.12
2023-04-17T01:44:25.922Z,87.08
2023-04-17T01:46:56.853Z,87.07
2023-04-17T01:49:23.518Z,87.06
2023-04-17T01:51:50.124Z,87.20
2023-04-17T01:54:16.794Z,87.26
2023-04-17T01:56:43.457Z,87.32
2023-04-17T01:59:11.053Z,87.40
2023-04-17T02:01:38.113Z,87.33
2023-04-17T02:04:06.175Z,87.60
2023-04-17T02:06:35.964Z,87.56
2023-04-17T02:09:03.124Z,87.47
2023-04-17T02:11:29.817Z,87.34
2023-04-17T02:13:56.443Z,87.42
2023-04-17T02:16:23.231Z,87.49
2023-04-17T02:18:52.061Z,87.37
2023-04-17T02:21:18.737Z,87.48
2023-04-17T02:23:46.746Z,87.48
2023-04-17T02:26:14.800Z,87.56
2023-04-17T02:28:44.290Z,87.44
2023-04-17T02:31:12.052Z,87.32
2023-04-17T02:33:38.861Z,87.28
2023-04-17T02:36:06.410Z,87.62
2023-04-17T02:38:33.135Z,87.62
2023-04-17T02:41:00.299Z,87.64
2023-04-17T02:43:26.928Z,87.96
2023-04-17T02:45:53.569Z,88.16
2023-04-17T02:48:20.388Z,88.35
2023-04-17T02:50:47.065Z,88.36
2023-04-17T02:53:14.754Z,88.58
2023-04-17T02:55:41.382Z,88.66
2023-04-17T02:58:08.279Z,88.77
2023-04-17T03:00:39.390Z,88.79
2023-04-17T03:03:06.377Z,88.92
2023-04-17T03:05:33.388Z,89.28
2023-04-17T03:08:00.220Z,89.33
2023-04-17T03:10:26.922Z,89.51
2023-04-17T03:12:53.698Z,89.89
2023-04-17T03:15:20.443Z,90.07
2023-04-17T03:17:47.391Z,90.19
2023-04-17T03:20:15.963Z,90.43
2023-04-17T03:22:42.805Z,90.67
2023-04-17T03:25:10.039Z,90.63
2023-04-17T03:27:36.734Z,90.61
2023-04-17T03:30:03.668Z,90.73
2023-04-17T03:32:30.369Z,90.82
2023-04-17T03:34:57.012Z,91.11
2023-04-17T03:37:23.709Z,90.99
2023-04-17T03:39:50.410Z,91.13
2023-04-17T03:42:17.083Z,91.09
2023-04-17T03:44:43.712Z,91.23
2023-04-17T03:47:10.725Z,91.26
2023-04-17T03:49:37.452Z,91.45
2023-04-17T03:52:05.330Z,91.83
2023-04-17T03:54:35.488Z,91.75
2023-04-17T03:57:03.475Z,91.82
2023-04-17T03:59:31.860Z,91.79
2023-04-17T04:01:58.918Z,91.88
2023-04-17T04:04:26.216Z,91.99
2023-04-17T04:06:54.619Z,91.96
2023-04-17T04:09:21.626Z,92.01
2023-04-17T04:11:48.514Z,92.04
2023-04-17T04:14:15.287Z,92.17
2023-04-17T04:16:42.320Z,92.31
2023-04-17T04:19:09.392Z,92.35
2023-04-17T04:21:36.571Z,92.36
2023-04-17T04:24:03.403Z,92.83
2023-04-17T04:26:30.048Z,92.58
2023-04-17T04:28:56.824Z,92.78
2023-04-17T04:31:29.768Z,92.73
2023-04-17T04:33:58.318Z,92.71
2023-04-17T04:36:25.370Z,92.85
2023-04-17T04:38:52.036Z,93.22
2023-04-17T04:41:20.050Z,92.99
2023-04-17T04:43:46.743Z,93.15
2023-04-17T04:46:13.476Z,93.15
2023-04-17T04:48:42.714Z,93.22
2023-04-17T04:51:12.279Z,93.30
2023-04-17T04:53:38.995Z,92.82
2023-04-17T04:56:06.072Z,93.16
2023-04-17T04:58:32.742Z,93.01
2023-04-17T05:00:59.435Z,93.17
2023-04-17T05:03:26.458Z,93.34
2023-04-17T05:05:53.242Z,93.54
2023-04-17T05:08:20.437Z,93.59
2023-04-17T05:10:47.248Z,93.53
2023-04-17T05:13:13.994Z,93.42
2023-04-17T05:15:41.615Z,93.62
2023-04-17T05:18:08.318Z,93.98
2023-04-17T05:20:36.405Z,94.13
2023-04-17T05:23:03.210Z,94.10
2023-04-17T05:25:29.896Z,94.56
2023-04-17T05:28:03.213Z,94.41
2023-04-17T05:30:29.832Z,94.54
2023-04-17T05:32:56.645Z,94.56
2023-04-17T05:35:23.349Z,94.71
2023-04-17T05:37:50.248Z,94.85
2023-04-17T05:40:16.951Z,94.85
2023-04-17T05:42:43.630Z,95.02
2023-04-17T05:45:18.136Z,95.20
2023-04-17T05:47:44.972Z,95.15
2023-04-17T05:50:11.813Z,95.27
2023-04-17T05:52:39.632Z,95.41
2023-04-17T05:55:06.895Z,95.52
2023-04-17T05:57:33.505Z,95.68
2023-04-17T06:00:00.340Z,95.87
2023-04-17T06:02:27.376Z,95.86
2023-04-17T06:04:54.559Z,96.01
2023-04-17T06:07:21.666Z,96.13
2023-04-17T06:09:48.277Z,96.30
2023-04-17T06:12:16.358Z,96.39
2023-04-17T06:14:43.621Z,96.59
2023-04-17T06:17:10.679Z,96.58
2023-04-17T06:19:37.431Z,96.80
2023-04-17T06:22:04.147Z,96.74
2023-04-17T06:24:31.216Z,96.71
2023-04-17T06:26:58.083Z,96.95
2023-04-17T06:29:24.753Z,96.96
2023-04-17T06:31:51.399Z,97.02
2023-04-17T06:34:18.112Z,96.94
2023-04-17T06:36:44.783Z,96.90
2023-04-17T06:39:11.761Z,96.89
2023-04-17T06:41:38.667Z,96.88
2023-04-17T06:44:05.825Z,96.82
2023-04-17T06:46:32.542Z,96.85
2023-04-17T06:48:59.786Z,96.91
2023-04-17T06:51:27.798Z,96.62
2023-04-17T06:53:54.470Z,96.86
2023-04-17T06:56:21.541Z,97.07
2023-04-17T06:58:48.252Z,97.10
2023-04-17T07:01:15.366Z,97.02
2023-04-17T07:03:43.418Z,97.02
2023-04-17T07:06:10.888Z,97.04
2023-04-17T07:08:37.580Z,97.10
2023-04-17T07:11:04.292Z,97.02
2023-04-17T07:13:34.050Z,97.18
2023-04-17T07:16:01.459Z,97.04
2023-04-17T07:18:31.489Z,97.01
2023-04-17T07:20:58.177Z,97.12
2023-04-17T07:23:25.362Z,96.95
2023-04-17T07:25:52.006Z,96.63
2023-04-17T07:28:18.802Z,96.77
2023-04-17T07:30:45.713Z,96.46
2023-04-17T07:33:12.562Z,96.23
2023-04-17T07:35:39.670Z,96.47
2023-04-17T07:38:06.386Z,96.45
2023-04-17T07:40:35.986Z,96.32
2023-04-17T07:43:02.660Z,96.43
2023-04-17T07:45:29.308Z,96.32
2023-04-17T07:47:56.015Z,96.15
2023-04-17T07:50:22.870Z,96.00
2023-04-17T07:52:49.548Z,95.91
2023-04-17T07:55:16.795Z,95.67
2023-04-17T07:57:43.609Z,95.70
2023-04-17T08:00:13.771Z,95.53
2023-04-17T08:02:41.817Z,95.58
2023-04-17T08:05:09.631Z,95.32
2023-04-17T08:07:37.203Z,95.42
2023-04-17T08:10:05.283Z,95.40
2023-04-17T08:12:32.125Z,95.36
2023-04-17T08:14:58.921Z,96.53
2023-04-17T08:17:26.133Z,98.34
2023-04-17T08:19:57.636Z,100.00
2023-04-17T08:22:26.057Z,100.00
2023-04-17T08:24:57.917Z,100.00
2023-04-17T08:27:25.513Z,100.00
2023-04-17T08:29:56.638Z,100.00
2023-04-17T08:32:23.450Z,100.00
2023-04-17T08:34:50.174Z,100.00
2023-04-17T08:37:17.006Z,100.00
2023-04-17T08:39:43.760Z,100.00
2023-04-17T08:42:15.859Z,100.00
2023-04-17T08:44:44.305Z,98.53
2023-04-17T08:47:12.809Z,92.29
2023-04-17T08:49:43.482Z,87.13
2023-04-17T08:52:10.962Z,82.34
2023-04-17T08:54:39.080Z,78.18
2023-04-17T08:57:06.312Z,74.79
2023-04-17T08:59:33.341Z,70.66
2023-04-17T09:02:01.672Z,68.66
2023-04-17T09:04:38.864Z,68.31
2023-04-17T09:07:07.291Z,63.91
2023-04-17T09:09:48.195Z,64.08
2023-04-17T09:12:14.893Z,61.07
2023-04-17T09:14:41.664Z,60.01
2023-04-17T09:17:08.593Z,58.70
2023-04-17T09:19:35.500Z,57.69
2023-04-17T09:22:19.614Z,58.47
2023-04-17T09:24:46.458Z,56.24
2023-04-17T09:27:29.297Z,56.55
2023-04-17T09:30:04.459Z,55.46
2023-04-17T09:32:33.528Z,53.80
2023-04-17T09:35:02.324Z,52.64
2023-04-17T09:37:51.026Z,53.34
2023-04-17T09:40:19.812Z,52.16
2023-04-17T09:43:00.730Z,52.47
2023-04-17T09:45:33.583Z,51.34
2023-04-17T09:48:01.204Z,51.30
2023-04-17T09:50:28.040Z,51.20
2023-04-17T09:52:56.080Z,51.20
2023-04-17T09:55:32.663Z,51.36
2023-04-17T09:58:02.787Z,50.96
2023-04-17T10:00:30.107Z,50.98
2023-04-17T10:03:00.302Z,51.07
2023-04-17T10:05:29.346Z,50.99
2023-04-17T10:07:56.659Z,52.42
2023-04-17T10:10:34.209Z,54.54
2023-04-17T10:13:03.153Z,56.17
2023-04-17T10:15:30.600Z,57.92
2023-04-17T10:18:24.262Z,58.66
2023-04-17T10:20:53.649Z,59.83
2023-04-17T10:23:31.737Z,60.52
2023-04-17T10:26:26.531Z,60.37
2023-04-17T10:28:55.996Z,60.09
2023-04-17T10:31:26.013Z,59.35
2023-04-17T10:33:56.913Z,58.45
2023-04-17T10:36:38.849Z,57.30
2023-04-17T10:39:15.381Z,56.44
2023-04-17T10:42:04.744Z,57.13
2023-04-17T10:44:39.454Z,57.38
2023-04-17T10:47:07.397Z,57.27
2023-04-17T10:49:51.273Z,56.40
2023-04-17T10:52:34.557Z,56.49
2023-04-17T10:55:16.377Z,57.08
2023-04-17T10:58:03.474Z,57.78
2023-04-17T11:00:34.289Z,58.55
2023-04-17T11:03:02.043Z,59.69
2023-04-17T11:05:29.349Z,60.13
2023-04-17T11:07:56.551Z,60.84
2023-04-17T11:10:23.348Z,61.55
2023-04-17T11:12:56.739Z,61.62
2023-04-17T11:15:31.351Z,62.19
2023-04-17T11:17:59.422Z,62.65
2023-04-17T11:20:30.275Z,63.51
2023-04-17T11:23:04.506Z,63.77
2023-04-17T11:25:33.829Z,63.71
2023-04-17T11:28:06.556Z,64.62
2023-04-17T11:30:40.736Z,65.07
2023-04-17T11:33:08.300Z,65.22
2023-04-17T11:35:44.038Z,65.49
2023-04-17T11:38:20.782Z,66.14
2023-04-17T11:40:52.888Z,66.30
2023-04-17T11:43:21.483Z,66.26
2023-04-17T11:45:51.148Z,66.19
2023-04-17T11:48:22.699Z,66.40
2023-04-17T11:50:50.099Z,66.35
2023-04-17T11:53:17.509Z,66.29
2023-04-17T11:55:45.081Z,66.39
2023-04-17T11:58:14.074Z,66.48
2023-04-17T12:00:43.034Z,66.91
2023-04-17T12:03:33.591Z,67.06
2023-04-17T12:06:03.062Z,67.47
2023-04-17T12:08:31.134Z,67.43
2023-04-17T12:10:58.770Z,67.60
2023-04-17T12:13:26.365Z,68.09
2023-04-17T12:15:53.168Z,67.90
2023-04-17T12:18:19.932Z,68.30
2023-04-17T12:20:46.601Z,68.00
2023-04-17T12:23:14.324Z,67.39
2023-04-17T12:25:42.664Z,67.60
2023-04-17T12:28:09.366Z,67.18
2023-04-17T12:30:39.678Z,66.72
2023-04-17T12:33:07.245Z,66.50
2023-04-17T12:35:34.093Z,66.82
2023-04-17T12:38:01.017Z,66.99
2023-04-17T12:40:27.743Z,67.00
2023-04-17T12:42:54.457Z,67.17
2023-04-17T12:45:21.313Z,67.49
2023-04-17T12:47:48.284Z,67.49
2023-04-17T12:50:15.089Z,67.74
2023-04-17T12:52:42.099Z,67.56
2023-04-17T12:55:09.665Z,67.94
2023-04-17T12:57:36.824Z,68.18
2023-04-17T13:00:06.697Z,67.98
2023-04-17T13:02:35.422Z,67.95
2023-04-17T13:05:07.842Z,67.91
2023-04-17T13:07:34.576Z,68.29
2023-04-17T13:10:01.302Z,68.16
2023-04-17T13:12:28.009Z,67.83
2023-04-17T13:14:57.256Z,67.99
2023-04-17T13:17:24.924Z,68.19
2023-04-17T13:19:51.986Z,68.16
2023-04-17T13:22:20.688Z,67.76
2023-04-17T13:24:47.487Z,68.24
2023-04-17T13:27:14.198Z,67.83
2023-04-17T13:29:42.664Z,68.42
2023-04-17T13:32:09.858Z,68.41
2023-04-17T13:34:37.605Z,68.04
2023-04-17T13:37:04.356Z,68.25
2023-04-17T13:39:32.024Z,68.72
2023-04-17T13:41:58.696Z,69.04
2023-04-17T13:44:25.727Z,69.08
2023-04-17T13:46:52.884Z,69.19
2023-04-17T13:49:19.867Z,69.28
2023-04-17T13:51:47.118Z,69.62
2023-04-17T13:54:13.807Z,70.03
2023-04-17T13:56:42.415Z,69.87
2023-04-17T13:59:10.578Z,70.02
2023-04-17T14:01:37.840Z,69.98
2023-04-17T14:04:05.213Z,70.19
2023-04-17T14:06:34.813Z,70.22
2023-04-17T14:09:01.790Z,69.98
2023-04-17T14:11:28.709Z,70.19
2023-04-17T14:13:55.353Z,70.20
2023-04-17T14:16:22.081Z,70.33
2023-04-17T14:18:49.399Z,70.30
2023-04-17T14:21:16.948Z,70.26
2023-04-17T14:23:45.222Z,70.15
2023-04-17T14:26:12.601Z,69.85
2023-04-17T14:28:39.443Z,69.84
2023-04-17T14:31:06.417Z,70.00
2023-04-17T14:33:33.092Z,69.80
2023-04-17T14:35:59.834Z,69.75
2023-04-17T14:38:26.527Z,69.77
2023-04-17T14:40:53.354Z,70.09
2023-04-17T14:43:20.020Z,70.22
2023-04-17T14:45:46.867Z,70.19
2023-04-17T14:48:13.719Z,70.34
2023-04-17T14:50:40.490Z,70.38
2023-04-17T14:53:07.145Z,70.56
2023-04-17T14:55:34.421Z,70.63
2023-04-17T14:58:01.024Z,71.14
2023-04-17T15:00:27.641Z,70.85
2023-04-17T15:02:54.498Z,70.57
2023-04-17T15:05:22.501Z,70.95
2023-04-17T15:07:49.225Z,71.10
2023-04-17T15:10:16.236Z,71.19
2023-04-17T15:12:43.998Z,70.97
2023-04-17T15:15:11.143Z,70.54
2023-04-17T15:17:37.814Z,70.82
2023-04-17T15:20:05.826Z,70.83
2023-04-17T15:22:32.738Z,71.07
2023-04-17T15:24:59.426Z,71.18
2023-04-17T15:27:26.119Z,71.55
2023-04-17T15:29:52.834Z,71.63
2023-04-17T15:32:19.607Z,71.79
2023-04-17T15:34:46.430Z,72.06
2023-04-17T15:37:13.164Z,72.38
2023-04-17T15:39:40.054Z,72.64
2023-04-17T15:42:08.695Z,72.95
2023-04-17T15:44:37.550Z,73.05
2023-04-17T15:47:05.669Z,73.20
2023-04-17T15:49:32.882Z,73.50
2023-04-17T15:51:59.838Z,73.69
2023-04-17T15:54:26.893Z,74.03
2023-04-17T15:56:53.734Z,74.15
2023-04-17T15:59:20.869Z,74.29
2023-04-17T16:01:48.255Z,74.30
2023-04-17T16:04:15.304Z,74.59
2023-04-17T16:06:42.142Z,74.73
2023-04-17T16:09:09.872Z,75.06
2023-04-17T16:11:36.624Z,75.31
2023-04-17T16:14:03.479Z,74.99
2023-04-17T16:16:30.141Z,74.79
2023-04-17T16:18:57.627Z,74.03
2023-04-17T16:21:24.384Z,73.72
2023-04-17T16:23:51.035Z,73.11
2023-04-17T16:26:17.775Z,73.14
2023-04-17T16:28:45.812Z,72.43
2023-04-17T16:31:16.365Z,72.66
2023-04-17T16:33:43.813Z,73.14
2023-04-17T16:36:10.470Z,73.75
2023-04-17T16:38:38.750Z,74.36
2023-04-17T16:41:05.547Z,74.56
2023-04-17T16:43:32.219Z,74.71
2023-04-17T16:46:01.220Z,74.97
2023-04-17T16:48:30.154Z,75.46
2023-04-17T16:51:04.781Z,75.90
2023-04-17T16:53:31.869Z,75.89
2023-04-17T16:55:58.656Z,76.10
2023-04-17T16:58:25.241Z,75.97
2023-04-17T17:00:52.007Z,76.33
2023-04-17T17:03:20.094Z,76.25
2023-04-17T17:05:47.117Z,76.13
2023-04-17T17:08:14.530Z,76.13
2023-04-17T17:10:41.282Z,75.95
2023-04-17T17:13:07.970Z,75.98
2023-04-17T17:15:34.785Z,75.98
2023-04-17T17:18:01.569Z,76.38
2023-04-17T17:20:28.354Z,76.51
2023-04-17T17:22:55.010Z,76.69
2023-04-17T17:25:23.084Z,76.84
2023-04-17T17:27:49.844Z,76.64
2023-04-17T17:30:16.752Z,76.57
2023-04-17T17:32:43.470Z,76.40
2023-04-17T17:35:10.222Z,76.46
2023-04-17T17:37:36.951Z,76.76
2023-04-17T17:40:04.410Z,76.81
2023-04-17T17:42:31.076Z,76.36
2023-04-17T17:44:57.718Z,76.04
2023-04-17T17:47:24.392Z,75.98
2023-04-17T17:49:51.007Z,75.84
2023-04-17T17:52:17.820Z,75.52
2023-04-17T17:54:44.454Z,75.19
2023-04-17T17:57:11.199Z,74.96
2023-04-17T17:59:37.855Z,74.82
2023-04-17T18:02:04.879Z,74.39
2023-04-17T18:04:31.712Z,74.47
2023-04-17T18:06:58.359Z,74.61
2023-04-17T18:09:25.282Z,74.82
2023-04-17T18:11:51.962Z,74.71
2023-04-17T18:14:18.618Z,74.90
2023-04-17T18:16:45.502Z,75.09
2023-04-17T18:19:12.301Z,75.36
2023-04-17T18:21:39.288Z,75.57
2023-04-17T18:24:06.363Z,75.55
2023-04-17T18:26:34.092Z,75.64
2023-04-17T18:29:00.890Z,75.77
2023-04-17T18:31:28.440Z,75.86
2023-04-17T18:33:55.194Z,76.12
2023-04-17T18:36:21.852Z,76.30
2023-04-17T18:38:48.650Z,76.63
2023-04-17T18:41:15.345Z,77.00
2023-04-17T18:43:43.029Z,77.02
2023-04-17T18:46:09.694Z,77.35
2023-04-17T18:48:36.474Z,77.54
2023-04-17T18:51:14.571Z,77.87
2023-04-17T18:53:41.550Z,78.04
2023-04-17T18:56:09.256Z,77.93
2023-04-17T18:58:37.699Z,78.09
2023-04-17T19:01:06.077Z,78.29
2023-04-17T19:03:33.087Z,78.33
2023-04-17T19:05:59.818Z,78.64
2023-04-17T19:08:26.493Z,78.62
2023-04-17T19:10:53.167Z,78.89
2023-04-17T19:13:19.910Z,78.87
2023-04-17T19:15:46.508Z,79.36
2023-04-17T19:18:13.224Z,79.49
2023-04-17T19:20:41.270Z,79.85
2023-04-17T19:23:09.362Z,79.99
2023-04-17T19:25:38.764Z,80.25
2023-04-17T19:28:05.865Z,80.41
2023-04-17T19:30:32.540Z,80.67
2023-04-17T19:32:59.414Z,80.53
2023-04-17T19:35:26.455Z,80.74
2023-04-17T19:37:53.171Z,80.70
2023-04-17T19:40:24.893Z,80.99
2023-04-17T19:42:52.544Z,81.00
2023-04-17T19:45:20.904Z,81.25
2023-04-17T19:47:55.001Z,81.53
2023-04-17T19:50:27.385Z,81.83
2023-04-17T19:52:55.169Z,81.83
2023-04-17T19:55:21.980Z,82.08
2023-04-17T19:57:50.673Z,82.33
2023-04-17T20:00:17.814Z,82.72
2023-04-17T20:02:44.784Z,82.80
2023-04-17T20:05:12.235Z,82.77
2023-04-17T20:07:38.970Z,82.81
2023-04-17T20:10:06.927Z,82.91
2023-04-17T20:12:33.863Z,83.06
2023-04-17T20:15:01.129Z,83.24
2023-04-17T20:17:27.866Z,83.48
2023-04-17T20:19:54.564Z,83.86
2023-04-17T20:22:21.221Z,83.82
2023-04-17T20:24:51.109Z,84.23
2023-04-17T20:27:18.093Z,84.29
2023-04-17T20:29:45.056Z,84.13
2023-04-17T20:32:11.956Z,84.19
2023-04-17T20:34:38.582Z,84.39
2023-04-17T20:37:05.297Z,84.47
2023-04-17T20:39:32.245Z,84.61
2023-04-17T20:42:01.999Z,84.63
2023-04-17T20:44:28.704Z,84.84
2023-04-17T20:46:55.354Z,85.00
2023-04-17T20:49:22.084Z,85.08
2023-04-17T20:51:48.918Z,85.21
2023-04-17T20:54:15.788Z,85.31
2023-04-17T20:56:43.418Z,85.52
2023-04-17T20:59:10.765Z,85.56
2023-04-17T21:01:37.481Z,85.56
2023-04-17T21:04:04.465Z,85.67
2023-04-17T21:06:31.225Z,85.89
2023-04-17T21:08:57.993Z,85.90
2023-04-17T21:11:24.832Z,86.22
2023-04-17T21:13:51.534Z,86.52
2023-04-17T21:16:18.186Z,86.66
2023-04-17T21:18:45.389Z,86.87
2023-04-17T21:21:12.046Z,86.85
2023-04-17T21:23:38.661Z,87.19
2023-04-17T21:26:05.310Z,87.20
2023-04-17T21:28:33.143Z,87.09
2023-04-17T21:30:59.786Z,87.27
2023-04-17T21:33:26.421Z,87.18
2023-04-17T21:35:53.101Z,87.35
2023-04-17T21:38:19.758Z,87.45
2023-04-17T21:43:18.320Z,87.54
2023-04-17T21:45:44.983Z,87.61
2023-04-17T21:48:11.584Z,87.82
2023-04-17T21:50:39.475Z,88.00
2023-04-17T21:53:07.821Z,88.25
2023-04-17T21:55:35.217Z,88.42
2023-04-17T21:58:01.984Z,88.83
2023-04-17T22:00:28.700Z,88.79
2023-04-17T22:02:55.423Z,89.20
2023-04-17T22:05:22.158Z,89.27
2023-04-17T22:07:55.055Z,89.42
2023-04-17T22:10:23.690Z,89.42
2023-04-17T22:12:51.280Z,89.40
2023-04-17T22:15:18.013Z,89.63
2023-04-17T22:17:44.749Z,89.97
2023-04-17T22:20:11.986Z,89.97
2023-04-17T22:22:38.630Z,89.78
2023-04-17T22:25:05.832Z,89.76
2023-04-17T22:27:32.476Z,89.94
2023-04-17T22:29:59.163Z,89.70
2023-04-17T22:32:25.938Z,89.87
2023-04-17T22:34:52.581Z,90.02
2023-04-17T22:37:19.381Z,90.18
2023-04-17T22:39:46.389Z,90.33
2023-04-17T22:42:13.006Z,90.50
2023-04-17T22:44:41.829Z,90.54
2023-04-17T22:47:08.434Z,90.72
2023-04-17T22:49:38.068Z,90.95
2023-04-17T22:52:06.256Z,91.27
2023-04-17T22:54:34.111Z,91.07
2023-04-17T22:57:02.385Z,91.18
2023-04-17T22:59:29.958Z,91.19
2023-04-17T23:01:56.821Z,91.39
2023-04-17T23:04:24.186Z,91.43
2023-04-17T23:06:50.905Z,91.55
2023-04-17T23:09:18.742Z,91.52
2023-04-17T23:11:45.488Z,91.54
2023-04-17T23:14:12.391Z,91.42
2023-04-17T23:16:39.334Z,91.53
2023-04-17T23:19:06.003Z,91.48
2023-04-17T23:21:32.733Z,91.53
2023-04-17T23:23:59.412Z,91.51
2023-04-17T23:26:26.103Z,91.49
2023-04-17T23:28:52.788Z,91.57
2023-04-17T23:31:19.467Z,91.59
2023-04-17T23:33:48.955Z,91.74
2023-04-17T23:36:15.660Z,91.68
2023-04-17T23:38:42.628Z,91.66
2023-04-17T23:41:09.331Z,91.98
2023-04-17T23:43:36.009Z,92.01
2023-04-17T23:46:02.708Z,92.10
2023-04-17T23:48:29.372Z,92.30
2023-04-17T23:50:56.122Z,92.42
2023-04-17T23:53:22.936Z,92.50
2023-04-17T23:55:49.562Z,92.55
2023-04-17T23:58:16.255Z,92.57
